東京/横田 の空港の天気 - METARとTAF

横田飛行場 ( RJTY / OKO ) - 東京都福生市
飛行場実況気象(Metar)
観測時間07/19 12:56 JST (07/19 03:56 UTC)
風向・風速静穏 0m/s
視程10km以上
天気現象
少しの雲 雲底高度 880m
全天の4割程度の雲 雲底高度 4880m
気温29.1℃
湿度65%
気圧1011.4hPa
METARRJTY 190356Z AUTO 00000KT 10SM FEW029 SCT160 29/22 A2988 RMK AO2 SLP114 T02910218 FZRANO $
過去の天気等 Google飛行場航空写真 Wunderground天気予報

過去48時間のMETAR

飛行場予報(TAF)
発表時間: 7/19 11:05 JST (7/19 02:05 UTC)
予報対象時間: 19日11時 JST ~ 20日12時 JST
風向・風速不定 3m/s
視程8000m
天気現象もや
全天の8割程度の雲 雲底高度 610m
19日11時 JST ~ 19日13時 JST に一時的に
視程6000m
天気現象弱い雨
全天の8割程度の雲 雲底高度 460m
19日12時 JST ~ 19日13時 JST に徐々に
風向・風速南南東 5m/s
視程10km以上
天気現象運行に影響にある天気現象が終了
全天の8割程度の雲 雲底高度 610m
19日18時 JST ~ 19日19時 JST に徐々に
風向・風速南南西 3m/s
視程8000m
天気現象弱い雨
少しの雲 雲底高度 610m
TAF AMD RJTY 190205Z 1902/2003 VRB06KT 8000 BR BKN020 QNH2988INS
TEMPO 1902/1904 6000 -RA BKN015
BECMG 1903/1904 16009KT 9999 NSW BKN020 QNH2985INS
BECMG 1909/1910 21006KT 8000 -RA FEW020 QNH2992INS TX28/1906Z TN21/1921Z
日本の空港のMETAR・TAFへのリンク

RJTT 東京国際空港
RJAA 新東京国際空港
RJBB 関西国際空港
RJOO 大阪空港
RJGG 中部国際空港
RJCC 新千歳空港
RJFF 福岡空港
ROAH 那覇空港


RJEC 旭川空港
RJCH 函館空港
RJCK 釧路空港
RJCM 女満別空港
RJCB 帯広空港
RJSA 青森空港
RJSS 仙台空港
RJSK 秋田空港
RJSF 福島空港
RJAH 茨城空港
RJSN 新潟空港
RJNT 富山空港
RJNK 小松飛行場
RJNS 静岡空港
RJOH 美保飛行場
RJOC 出雲空港
RJOB 岡山空港
RJOA 広島空港
RJOI 岩国飛行場
RJOT 高松空港
RJOM 松山空港
RJOK 高知空港
RJFR 北九州空港
RJFT 熊本空港
RJFU 長崎空港
RJFS 佐賀空港
RJFO 大分空港
RJFM 宮崎空港
RJFK 鹿児島空港
ROIG 石垣島空港
RJTY 横田飛行場
ROTM 普天間飛行場
RODN 嘉手納飛行場